Flagstaff, AZ (86001)

4:12 PM MST on March 25, 2017 (GMT -0700)
Lowell Observatory | | Change Station

Elev 7247 ft 35.20 °N, 111.67 °W | Updated 4 minutes ago

Partly Cloudy
Partly Cloudy
46.2 °F
Feels Like 41 °F
N
11.0
Wind Variable Wind from WSW
Gusts 13.0 mph

Today
High -- | Low -- °F
--% Chance of Precip.
Yesterday
High -- | Low -- °F
Precip. -- in
Pressure 29.89 in
Visibility 10.0 miles
Clouds Few 3800 ft
Scattered Clouds 7000 ft
Scattered Clouds 10000 ft
Windchill 41 °F
Dew Point 34 °F
Humidity 62%
Rainfall 0.00 in
Snow Depth Not available.
6:22 AM 6:42 PM
Waning Crescent, 6% visible
METAR KFLG 252257Z 24008KT 10SM VCTS FEW038 SCT070 SCT100 07/02 A2998 RMK AO2 RAB23E36SNB23E36 TSB00E53 SLP120 P0001 T00720022
Pressure 29.89 in
Visibility 10.0 miles
Clouds Few 3800 ft
Scattered Clouds 7000 ft
Scattered Clouds 10000 ft
Windchill 41 °F
Dew Point 34 °F
Humidity 62%
Rainfall 0.00 in
Snow Depth Not available.
6:22 AM 6:42 PM
Waning Crescent, 6% visible
METAR KFLG 252257Z 24008KT 10SM VCTS FEW038 SCT070 SCT100 07/02 A2998 RMK AO2 RAB23E36SNB23E36 TSB00E53 SLP120 P0001 T00720022

Get Severe Weather Alerts

Thanks for signing up!

Be on the lookout for a verification email in your inbox.

You'll start receiving the daily forecast at 8 AM.

×

10-Day Weather Forecast

Almanac

Astronomy

Mar. 25, 2017 Rise Set
Actual Time
Civil Twilight
Nautical Twilight
Astronomical Twilight
Moon
Length of Visible Light
Length of Day
Tomorrow will be .
, % of the Moon is Illuminated

Today's Extremes

State Highs State Lows

Community

WunderPhotos

Upload Photos

1,962,540 photos uploaded!

WunderBlog® & News

Nearby

Air Quality

  Air Quality AQ Index Pollutant
Not available.

Snow Depth

Station Depth Elevation

Earthquake Activity

City Distance Mag. Time & Date
Minimum magnitude displayed is 2.5.

Earthquake Activity

City Distance Mag. Time & Date
Minimum magnitude displayed is 2.5.

Coastal Water Temperatures

Place Temperature

Stations

Nearby Weather Stations

Station Location Temp. Windchill Dew Point Humidity Wind Precip. Elev Updated Type
                   

Watches & Warnings

There are currently no watches in effect.